sensor_id;sensor_type;location;lat;lon;timestamp;P1;durP1;ratioP1;P2;durP2;ratioP2
45909;SDS011;31622;55.416;37.840;2023-04-15T00:01:24;2.40;;;1.20;;
45909;SDS011;31622;55.416;37.840;2023-04-15T00:03:51;3.17;;;1.23;;
45909;SDS011;31622;55.416;37.840;2023-04-15T00:06:18;2.40;;;1.23;;
45909;SDS011;31622;55.416;37.840;2023-04-15T00:08:47;3.13;;;1.80;;
45909;SDS011;31622;55.416;37.840;2023-04-15T00:11:15;3.00;;;1.48;;
45909;SDS011;31622;55.416;37.840;2023-04-15T00:13:41;2.80;;;1.30;;
45909;SDS011;31622;55.416;37.840;2023-04-15T00:16:07;2.53;;;1.23;;
45909;SDS011;31622;55.416;37.840;2023-04-15T00:18:33;2.25;;;1.25;;
45909;SDS011;31622;55.416;37.840;2023-04-15T00:20:59;2.92;;;1.33;;
45909;SDS011;31622;55.416;37.840;2023-04-15T00:23:27;2.45;;;1.30;;
45909;SDS011;31622;55.416;37.840;2023-04-15T00:25:53;3.47;;;1.45;;
45909;SDS011;31622;55.416;37.840;2023-04-15T00:28:19;1.90;;;1.10;;
45909;SDS011;31622;55.416;37.840;2023-04-15T00:30:45;2.33;;;1.30;;
45909;SDS011;31622;55.416;37.840;2023-04-15T00:33:12;4.22;;;1.40;;
45909;SDS011;31622;55.416;37.840;2023-04-15T00:35:38;4.63;;;1.60;;
45909;SDS011;31622;55.416;37.840;2023-04-15T00:38:04;1.75;;;1.00;;
45909;SDS011;31622;55.416;37.840;2023-04-15T00:40:32;2.08;;;1.20;;
45909;SDS011;31622;55.416;37.840;2023-04-15T00:42:57;2.47;;;0.98;;
45909;SDS011;31622;55.416;37.840;2023-04-15T00:45:24;2.42;;;1.20;;
45909;SDS011;31622;55.416;37.840;2023-04-15T00:47:50;1.70;;;1.00;;
45909;SDS011;31622;55.416;37.840;2023-04-15T00:50:16;4.13;;;1.20;;
45909;SDS011;31622;55.416;37.840;2023-04-15T00:52:42;3.25;;;1.23;;
45909;SDS011;31622;55.416;37.840;2023-04-15T00:55:08;2.20;;;1.25;;
45909;SDS011;31622;55.416;37.840;2023-04-15T00:57:34;2.08;;;1.05;;
45909;SDS011;31622;55.416;37.840;2023-04-15T01:00:00;1.55;;;0.90;;
45909;SDS011;31622;55.416;37.840;2023-04-15T01:02:28;2.42;;;1.20;;
45909;SDS011;31622;55.416;37.840;2023-04-15T01:04:53;2.17;;;0.98;;
45909;SDS011;31622;55.416;37.840;2023-04-15T01:07:20;2.53;;;1.10;;
45909;SDS011;31622;55.416;37.840;2023-04-15T01:09:46;2.92;;;1.10;;
45909;SDS011;31622;55.416;37.840;2023-04-15T01:12:13;2.13;;;1.23;;
45909;SDS011;31622;55.416;37.840;2023-04-15T01:14:39;2.30;;;1.08;;
45909;SDS011;31622;55.416;37.840;2023-04-15T01:17:05;1.75;;;0.90;;
45909;SDS011;31622;55.416;37.840;2023-04-15T01:19:31;2.25;;;0.90;;
45909;SDS011;31622;55.416;37.840;2023-04-15T01:21:57;1.48;;;0.90;;
45909;SDS011;31622;55.416;37.840;2023-04-15T01:24:23;2.80;;;1.10;;
45909;SDS011;31622;55.416;37.840;2023-04-15T01:26:51;2.35;;;1.10;;
45909;SDS011;31622;55.416;37.840;2023-04-15T01:29:17;2.72;;;1.20;;
45909;SDS011;31622;55.416;37.840;2023-04-15T01:31:52;1.92;;;1.10;;
45909;SDS011;31622;55.416;37.840;2023-04-15T01:34:19;2.20;;;1.00;;
45909;SDS011;31622;55.416;37.840;2023-04-15T01:36:45;3.30;;;1.20;;
45909;SDS011;31622;55.416;37.840;2023-04-15T01:39:12;1.83;;;1.00;;
45909;SDS011;31622;55.416;37.840;2023-04-15T01:41:38;3.15;;;0.95;;
45909;SDS011;31622;55.416;37.840;2023-04-15T01:44:05;1.70;;;0.98;;
45909;SDS011;31622;55.416;37.840;2023-04-15T01:46:31;3.85;;;1.30;;
45909;SDS011;31622;55.416;37.840;2023-04-15T01:48:58;2.55;;;1.20;;
45909;SDS011;31622;55.416;37.840;2023-04-15T01:51:25;2.05;;;1.00;;
45909;SDS011;31622;55.416;37.840;2023-04-15T01:53:51;2.20;;;1.00;;
45909;SDS011;31622;55.416;37.840;2023-04-15T01:56:17;3.05;;;1.08;;
45909;SDS011;31622;55.416;37.840;2023-04-15T01:58:43;2.33;;;1.00;;
45909;SDS011;31622;55.416;37.840;2023-04-15T02:01:09;3.13;;;1.33;;
45909;SDS011;31622;55.416;37.840;2023-04-15T02:03:36;2.10;;;1.10;;
45909;SDS011;31622;55.416;37.840;2023-04-15T02:06:03;2.95;;;1.10;;
45909;SDS011;31622;55.416;37.840;2023-04-15T02:08:30;1.85;;;1.02;;
45909;SDS011;31622;55.416;37.840;2023-04-15T02:10:56;3.15;;;1.45;;
45909;SDS011;31622;55.416;37.840;2023-04-15T02:13:23;2.72;;;1.20;;
45909;SDS011;31622;55.416;37.840;2023-04-15T02:15:49;2.80;;;1.08;;
45909;SDS011;31622;55.416;37.840;2023-04-15T02:18:18;1.80;;;1.02;;
45909;SDS011;31622;55.416;37.840;2023-04-15T02:20:43;2.20;;;1.17;;
45909;SDS011;31622;55.416;37.840;2023-04-15T02:23:09;2.70;;;1.00;;
45909;SDS011;31622;55.416;37.840;2023-04-15T02:25:36;2.05;;;1.00;;
45909;SDS011;31622;55.416;37.840;2023-04-15T02:28:07;3.10;;;1.27;;
45909;SDS011;31622;55.416;37.840;2023-04-15T02:30:32;3.10;;;1.00;;
45909;SDS011;31622;55.416;37.840;2023-04-15T02:33:01;2.85;;;1.00;;
45909;SDS011;31622;55.416;37.840;2023-04-15T02:35:27;2.30;;;0.93;;
45909;SDS011;31622;55.416;37.840;2023-04-15T02:37:54;1.73;;;0.90;;
45909;SDS011;31622;55.416;37.840;2023-04-15T02:40:20;2.35;;;0.93;;
45909;SDS011;31622;55.416;37.840;2023-04-15T02:42:45;3.28;;;1.10;;
45909;SDS011;31622;55.416;37.840;2023-04-15T02:45:14;2.20;;;0.85;;
45909;SDS011;31622;55.416;37.840;2023-04-15T02:47:40;2.80;;;1.00;;
45909;SDS011;31622;55.416;37.840;2023-04-15T02:50:10;1.65;;;1.00;;
45909;SDS011;31622;55.416;37.840;2023-04-15T02:52:39;1.50;;;0.85;;
45909;SDS011;31622;55.416;37.840;2023-04-15T02:55:06;1.92;;;1.10;;
45909;SDS011;31622;55.416;37.840;2023-04-15T02:57:32;1.98;;;1.00;;
45909;SDS011;31622;55.416;37.840;2023-04-15T03:00:04;4.53;;;1.07;;
45909;SDS011;31622;55.416;37.840;2023-04-15T03:02:34;4.28;;;1.10;;
45909;SDS011;31622;55.416;37.840;2023-04-15T03:05:01;3.85;;;1.25;;
45909;SDS011;31622;55.416;37.840;2023-04-15T03:07:27;3.72;;;1.15;;
45909;SDS011;31622;55.416;37.840;2023-04-15T03:09:53;1.77;;;1.30;;
45909;SDS011;31622;55.416;37.840;2023-04-15T03:12:19;2.38;;;1.00;;
45909;SDS011;31622;55.416;37.840;2023-04-15T03:14:45;2.45;;;1.40;;
45909;SDS011;31622;55.416;37.840;2023-04-15T03:17:10;2.55;;;1.10;;
45909;SDS011;31622;55.416;37.840;2023-04-15T03:19:37;2.53;;;1.08;;
45909;SDS011;31622;55.416;37.840;2023-04-15T03:22:03;2.25;;;1.20;;
45909;SDS011;31622;55.416;37.840;2023-04-15T03:24:29;2.38;;;1.17;;
45909;SDS011;31622;55.416;37.840;2023-04-15T03:26:56;2.45;;;1.13;;
45909;SDS011;31622;55.416;37.840;2023-04-15T03:29:23;2.55;;;1.15;;
45909;SDS011;31622;55.416;37.840;2023-04-15T03:31:48;2.13;;;1.10;;
45909;SDS011;31622;55.416;37.840;2023-04-15T03:34:15;2.78;;;1.08;;
45909;SDS011;31622;55.416;37.840;2023-04-15T03:36:40;2.55;;;1.20;;
45909;SDS011;31622;55.416;37.840;2023-04-15T03:39:06;2.38;;;1.00;;
45909;SDS011;31622;55.416;37.840;2023-04-15T03:41:32;3.42;;;1.02;;
45909;SDS011;31622;55.416;37.840;2023-04-15T03:43:57;2.50;;;1.15;;
45909;SDS011;31622;55.416;37.840;2023-04-15T03:46:23;1.90;;;0.98;;
45909;SDS011;31622;55.416;37.840;2023-04-15T03:48:49;2.00;;;1.00;;
45909;SDS011;31622;55.416;37.840;2023-04-15T03:51:14;2.10;;;1.20;;
45909;SDS011;31622;55.416;37.840;2023-04-15T03:53:40;3.10;;;1.30;;
45909;SDS011;31622;55.416;37.840;2023-04-15T03:56:06;3.72;;;1.40;;
45909;SDS011;31622;55.416;37.840;2023-04-15T03:58:31;2.70;;;1.10;;
45909;SDS011;31622;55.416;37.840;2023-04-15T04:00:57;5.10;;;1.42;;
45909;SDS011;31622;55.416;37.840;2023-04-15T04:03:23;3.05;;;1.20;;
45909;SDS011;31622;55.416;37.840;2023-04-15T04:05:49;3.92;;;1.25;;
45909;SDS011;31622;55.416;37.840;2023-04-15T04:08:15;2.78;;;1.30;;
45909;SDS011;31622;55.416;37.840;2023-04-15T04:10:43;2.05;;;1.25;;
45909;SDS011;31622;55.416;37.840;2023-04-15T04:13:09;3.05;;;1.30;;
45909;SDS011;31622;55.416;37.840;2023-04-15T04:15:34;2.35;;;1.30;;
45909;SDS011;31622;55.416;37.840;2023-04-15T04:18:00;2.70;;;1.35;;
45909;SDS011;31622;55.416;37.840;2023-04-15T04:20:26;3.70;;;1.50;;
45909;SDS011;31622;55.416;37.840;2023-04-15T04:22:52;3.90;;;1.40;;
45909;SDS011;31622;55.416;37.840;2023-04-15T04:25:17;2.05;;;1.20;;
45909;SDS011;31622;55.416;37.840;2023-04-15T04:27:43;2.95;;;1.20;;
45909;SDS011;31622;55.416;37.840;2023-04-15T04:30:10;2.38;;;1.33;;
45909;SDS011;31622;55.416;37.840;2023-04-15T04:32:36;3.30;;;1.50;;
45909;SDS011;31622;55.416;37.840;2023-04-15T04:35:02;1.88;;;1.10;;
45909;SDS011;31622;55.416;37.840;2023-04-15T04:37:28;3.15;;;1.60;;
45909;SDS011;31622;55.416;37.840;2023-04-15T04:39:54;4.32;;;1.20;;
45909;SDS011;31622;55.416;37.840;2023-04-15T04:42:20;2.47;;;1.25;;
45909;SDS011;31622;55.416;37.840;2023-04-15T04:44:46;2.85;;;1.25;;
45909;SDS011;31622;55.416;37.840;2023-04-15T04:47:12;3.08;;;1.50;;
45909;SDS011;31622;55.416;37.840;2023-04-15T04:49:38;10.02;;;4.55;;
45909;SDS011;31622;55.416;37.840;2023-04-15T04:52:03;11.13;;;4.93;;
45909;SDS011;31622;55.416;37.840;2023-04-15T04:54:30;9.80;;;4.57;;
45909;SDS011;31622;55.416;37.840;2023-04-15T04:56:55;6.50;;;3.75;;
45909;SDS011;31622;55.416;37.840;2023-04-15T04:59:22;7.45;;;3.40;;
45909;SDS011;31622;55.416;37.840;2023-04-15T05:01:48;6.47;;;3.33;;
45909;SDS011;31622;55.416;37.840;2023-04-15T05:04:13;5.47;;;2.55;;
45909;SDS011;31622;55.416;37.840;2023-04-15T05:06:39;4.10;;;2.30;;
45909;SDS011;31622;55.416;37.840;2023-04-15T05:09:05;4.05;;;1.98;;
45909;SDS011;31622;55.416;37.840;2023-04-15T05:11:31;4.03;;;2.00;;
45909;SDS011;31622;55.416;37.840;2023-04-15T05:13:57;4.90;;;2.03;;
45909;SDS011;31622;55.416;37.840;2023-04-15T05:16:23;3.00;;;1.90;;
45909;SDS011;31622;55.416;37.840;2023-04-15T05:18:50;4.43;;;1.77;;
45909;SDS011;31622;55.416;37.840;2023-04-15T05:21:16;5.05;;;1.67;;
45909;SDS011;31622;55.416;37.840;2023-04-15T05:23:41;5.10;;;1.63;;
45909;SDS011;31622;55.416;37.840;2023-04-15T05:26:07;2.45;;;1.35;;
45909;SDS011;31622;55.416;37.840;2023-04-15T05:28:33;2.00;;;1.27;;
45909;SDS011;31622;55.416;37.840;2023-04-15T05:30:59;3.05;;;1.40;;
45909;SDS011;31622;55.416;37.840;2023-04-15T05:33:24;4.68;;;1.50;;
45909;SDS011;31622;55.416;37.840;2023-04-15T05:35:50;2.33;;;1.40;;
45909;SDS011;31622;55.416;37.840;2023-04-15T05:38:16;4.45;;;1.60;;
45909;SDS011;31622;55.416;37.840;2023-04-15T05:40:41;2.80;;;1.27;;
45909;SDS011;31622;55.416;37.840;2023-04-15T05:43:07;3.03;;;1.30;;
45909;SDS011;31622;55.416;37.840;2023-04-15T05:45:33;6.80;;;1.48;;
45909;SDS011;31622;55.416;37.840;2023-04-15T05:47:58;13.38;;;2.13;;
45909;SDS011;31622;55.416;37.840;2023-04-15T05:50:24;7.80;;;2.30;;
45909;SDS011;31622;55.416;37.840;2023-04-15T05:52:50;10.18;;;3.13;;
45909;SDS011;31622;55.416;37.840;2023-04-15T05:55:16;9.23;;;2.58;;
45909;SDS011;31622;55.416;37.840;2023-04-15T05:57:41;7.38;;;2.65;;
45909;SDS011;31622;55.416;37.840;2023-04-15T06:00:07;5.97;;;2.13;;
45909;SDS011;31622;55.416;37.840;2023-04-15T06:02:37;6.38;;;2.30;;
45909;SDS011;31622;55.416;37.840;2023-04-15T06:05:02;9.70;;;2.60;;
45909;SDS011;31622;55.416;37.840;2023-04-15T06:07:33;4.03;;;2.10;;
45909;SDS011;31622;55.416;37.840;2023-04-15T06:10:01;9.77;;;2.55;;
45909;SDS011;31622;55.416;37.840;2023-04-15T06:12:28;9.32;;;2.83;;
45909;SDS011;31622;55.416;37.840;2023-04-15T06:14:53;11.27;;;3.55;;
45909;SDS011;31622;55.416;37.840;2023-04-15T06:17:19;17.08;;;4.88;;
45909;SDS011;31622;55.416;37.840;2023-04-15T06:19:45;17.58;;;4.90;;
45909;SDS011;31622;55.416;37.840;2023-04-15T06:22:11;10.43;;;4.10;;
45909;SDS011;31622;55.416;37.840;2023-04-15T06:24:36;9.93;;;4.25;;
45909;SDS011;31622;55.416;37.840;2023-04-15T06:27:02;9.88;;;2.92;;
45909;SDS011;31622;55.416;37.840;2023-04-15T06:29:28;7.57;;;2.55;;
45909;SDS011;31622;55.416;37.840;2023-04-15T06:31:54;11.35;;;3.85;;
45909;SDS011;31622;55.416;37.840;2023-04-15T06:34:20;8.25;;;2.72;;
45909;SDS011;31622;55.416;37.840;2023-04-15T06:36:46;7.72;;;2.75;;
45909;SDS011;31622;55.416;37.840;2023-04-15T06:39:12;6.07;;;2.40;;
45909;SDS011;31622;55.416;37.840;2023-04-15T06:41:38;7.35;;;2.65;;
45909;SDS011;31622;55.416;37.840;2023-04-15T06:44:04;5.65;;;2.47;;
45909;SDS011;31622;55.416;37.840;2023-04-15T06:46:30;7.93;;;2.47;;
45909;SDS011;31622;55.416;37.840;2023-04-15T06:48:55;7.78;;;2.20;;
45909;SDS011;31622;55.416;37.840;2023-04-15T06:51:21;11.10;;;2.60;;
45909;SDS011;31622;55.416;37.840;2023-04-15T06:53:48;10.30;;;2.33;;
45909;SDS011;31622;55.416;37.840;2023-04-15T06:56:13;6.15;;;2.22;;
45909;SDS011;31622;55.416;37.840;2023-04-15T06:58:39;8.55;;;2.10;;
45909;SDS011;31622;55.416;37.840;2023-04-15T07:01:05;5.97;;;1.98;;
45909;SDS011;31622;55.416;37.840;2023-04-15T07:03:31;7.10;;;2.47;;
45909;SDS011;31622;55.416;37.840;2023-04-15T07:05:57;5.70;;;1.83;;
45909;SDS011;31622;55.416;37.840;2023-04-15T07:08:23;5.55;;;1.75;;
45909;SDS011;31622;55.416;37.840;2023-04-15T07:10:49;4.93;;;1.70;;
45909;SDS011;31622;55.416;37.840;2023-04-15T07:13:15;5.28;;;1.92;;
45909;SDS011;31622;55.416;37.840;2023-04-15T07:15:41;4.57;;;1.70;;
45909;SDS011;31622;55.416;37.840;2023-04-15T07:18:07;4.80;;;1.92;;
45909;SDS011;31622;55.416;37.840;2023-04-15T07:20:33;4.05;;;1.88;;
45909;SDS011;31622;55.416;37.840;2023-04-15T07:23:00;4.55;;;1.58;;
45909;SDS011;31622;55.416;37.840;2023-04-15T07:25:25;2.90;;;1.58;;
45909;SDS011;31622;55.416;37.840;2023-04-15T07:27:52;3.15;;;1.52;;
45909;SDS011;31622;55.416;37.840;2023-04-15T07:30:18;3.85;;;1.95;;
45909;SDS011;31622;55.416;37.840;2023-04-15T07:32:44;3.83;;;1.83;;
45909;SDS011;31622;55.416;37.840;2023-04-15T07:35:09;6.28;;;2.42;;
45909;SDS011;31622;55.416;37.840;2023-04-15T07:37:35;19.17;;;5.95;;
45909;SDS011;31622;55.416;37.840;2023-04-15T07:40:01;44.92;;;13.13;;
45909;SDS011;31622;55.416;37.840;2023-04-15T07:42:31;35.40;;;10.40;;
45909;SDS011;31622;55.416;37.840;2023-04-15T07:44:58;29.02;;;10.65;;
45909;SDS011;31622;55.416;37.840;2023-04-15T07:47:24;20.38;;;8.43;;
45909;SDS011;31622;55.416;37.840;2023-04-15T07:49:49;20.13;;;7.45;;
45909;SDS011;31622;55.416;37.840;2023-04-15T07:52:15;29.15;;;9.23;;
45909;SDS011;31622;55.416;37.840;2023-04-15T07:54:41;27.95;;;9.65;;
45909;SDS011;31622;55.416;37.840;2023-04-15T07:57:07;22.90;;;8.85;;
45909;SDS011;31622;55.416;37.840;2023-04-15T07:59:32;22.98;;;7.20;;
45909;SDS011;31622;55.416;37.840;2023-04-15T08:01:58;20.60;;;6.75;;
45909;SDS011;31622;55.416;37.840;2023-04-15T08:04:24;16.25;;;6.20;;
45909;SDS011;31622;55.416;37.840;2023-04-15T08:06:50;24.73;;;7.10;;
45909;SDS011;31622;55.416;37.840;2023-04-15T08:09:16;15.88;;;6.10;;
45909;SDS011;31622;55.416;37.840;2023-04-15T08:11:42;12.32;;;5.03;;
45909;SDS011;31622;55.416;37.840;2023-04-15T08:14:08;11.88;;;5.05;;
45909;SDS011;31622;55.416;37.840;2023-04-15T08:16:33;14.07;;;5.60;;
45909;SDS011;31622;55.416;37.840;2023-04-15T08:18:59;9.70;;;4.45;;
45909;SDS011;31622;55.416;37.840;2023-04-15T08:21:25;8.65;;;4.30;;
45909;SDS011;31622;55.416;37.840;2023-04-15T08:23:52;10.27;;;3.97;;
45909;SDS011;31622;55.416;37.840;2023-04-15T08:26:18;11.30;;;4.30;;
45909;SDS011;31622;55.416;37.840;2023-04-15T08:28:45;9.75;;;3.70;;
45909;SDS011;31622;55.416;37.840;2023-04-15T08:31:12;10.35;;;3.70;;
45909;SDS011;31622;55.416;37.840;2023-04-15T08:33:39;7.90;;;3.10;;
45909;SDS011;31622;55.416;37.840;2023-04-15T08:36:04;7.82;;;3.13;;
45909;SDS011;31622;55.416;37.840;2023-04-15T08:38:31;7.38;;;2.47;;
45909;SDS011;31622;55.416;37.840;2023-04-15T08:40:59;7.45;;;2.67;;
45909;SDS011;31622;55.416;37.840;2023-04-15T08:43:28;10.57;;;2.70;;
45909;SDS011;31622;55.416;37.840;2023-04-15T08:46:00;8.13;;;2.47;;
45909;SDS011;31622;55.416;37.840;2023-04-15T08:48:31;5.57;;;2.15;;
45909;SDS011;31622;55.416;37.840;2023-04-15T08:50:57;7.97;;;2.65;;
45909;SDS011;31622;55.416;37.840;2023-04-15T08:53:23;5.03;;;2.38;;
45909;SDS011;31622;55.416;37.840;2023-04-15T08:55:51;6.13;;;2.20;;
45909;SDS011;31622;55.416;37.840;2023-04-15T08:58:17;5.07;;;2.08;;
45909;SDS011;31622;55.416;37.840;2023-04-15T09:00:44;4.32;;;2.00;;
45909;SDS011;31622;55.416;37.840;2023-04-15T09:03:10;3.42;;;1.83;;
45909;SDS011;31622;55.416;37.840;2023-04-15T09:05:35;4.68;;;2.00;;
45909;SDS011;31622;55.416;37.840;2023-04-15T09:08:02;4.75;;;2.15;;
45909;SDS011;31622;55.416;37.840;2023-04-15T09:10:28;4.70;;;2.65;;
45909;SDS011;31622;55.416;37.840;2023-04-15T09:12:54;4.78;;;1.63;;
45909;SDS011;31622;55.416;37.840;2023-04-15T09:15:20;5.05;;;1.98;;
45909;SDS011;31622;55.416;37.840;2023-04-15T09:17:46;3.58;;;1.77;;
45909;SDS011;31622;55.416;37.840;2023-04-15T09:20:13;2.83;;;1.48;;
45909;SDS011;31622;55.416;37.840;2023-04-15T09:22:41;4.57;;;1.52;;
45909;SDS011;31622;55.416;37.840;2023-04-15T09:27:47;3.72;;;1.75;;
45909;SDS011;31622;55.416;37.840;2023-04-15T09:30:13;5.72;;;1.92;;
45909;SDS011;31622;55.416;37.840;2023-04-15T09:32:48;3.90;;;2.05;;
45909;SDS011;31622;55.416;37.840;2023-04-15T09:35:17;5.28;;;2.33;;
45909;SDS011;31622;55.416;37.840;2023-04-15T09:37:44;4.68;;;2.60;;
45909;SDS011;31622;55.416;37.840;2023-04-15T09:40:10;5.43;;;4.07;;
45909;SDS011;31622;55.416;37.840;2023-04-15T09:42:36;4.97;;;3.38;;
45909;SDS011;31622;55.416;37.840;2023-04-15T09:45:11;5.80;;;3.30;;
45909;SDS011;31622;55.416;37.840;2023-04-15T09:47:37;4.38;;;3.10;;
45909;SDS011;31622;55.416;37.840;2023-04-15T09:50:03;4.97;;;3.35;;
45909;SDS011;31622;55.416;37.840;2023-04-15T09:52:29;4.05;;;3.13;;
45909;SDS011;31622;55.416;37.840;2023-04-15T09:54:58;5.70;;;2.85;;
45909;SDS011;31622;55.416;37.840;2023-04-15T09:57:24;4.18;;;2.90;;
45909;SDS011;31622;55.416;37.840;2023-04-15T09:59:50;6.80;;;3.55;;
45909;SDS011;31622;55.416;37.840;2023-04-15T10:02:17;4.80;;;2.50;;
45909;SDS011;31622;55.416;37.840;2023-04-15T10:04:44;4.22;;;2.22;;
45909;SDS011;31622;55.416;37.840;2023-04-15T10:07:12;4.85;;;2.35;;
45909;SDS011;31622;55.416;37.840;2023-04-15T10:09:39;3.50;;;2.17;;
45909;SDS011;31622;55.416;37.840;2023-04-15T10:12:05;5.65;;;2.13;;
45909;SDS011;31622;55.416;37.840;2023-04-15T10:14:32;3.42;;;2.10;;
45909;SDS011;31622;55.416;37.840;2023-04-15T10:17:03;3.88;;;1.90;;
45909;SDS011;31622;55.416;37.840;2023-04-15T10:19:33;3.08;;;2.13;;
45909;SDS011;31622;55.416;37.840;2023-04-15T10:24:27;5.57;;;2.17;;
45909;SDS011;31622;55.416;37.840;2023-04-15T10:26:53;2.88;;;1.92;;
45909;SDS011;31622;55.416;37.840;2023-04-15T10:29:19;4.22;;;1.98;;
45909;SDS011;31622;55.416;37.840;2023-04-15T10:31:45;4.07;;;2.00;;
45909;SDS011;31622;55.416;37.840;2023-04-15T10:34:11;2.97;;;1.98;;
45909;SDS011;31622;55.416;37.840;2023-04-15T10:36:37;3.63;;;2.20;;
45909;SDS011;31622;55.416;37.840;2023-04-15T10:39:15;4.90;;;2.25;;
45909;SDS011;31622;55.416;37.840;2023-04-15T10:42:16;2.65;;;1.60;;
45909;SDS011;31622;55.416;37.840;2023-04-15T10:44:44;5.63;;;1.88;;
45909;SDS011;31622;55.416;37.840;2023-04-15T10:47:14;3.35;;;1.90;;
45909;SDS011;31622;55.416;37.840;2023-04-15T10:49:45;3.00;;;1.98;;
45909;SDS011;31622;55.416;37.840;2023-04-15T10:52:13;4.07;;;1.50;;
45909;SDS011;31622;55.416;37.840;2023-04-15T10:54:40;3.25;;;1.90;;
45909;SDS011;31622;55.416;37.840;2023-04-15T10:57:07;5.47;;;1.85;;
45909;SDS011;31622;55.416;37.840;2023-04-15T10:59:35;4.57;;;1.80;;
45909;SDS011;31622;55.416;37.840;2023-04-15T11:02:05;2.70;;;1.88;;
45909;SDS011;31622;55.416;37.840;2023-04-15T11:08:04;11.20;;;1.95;;
45909;SDS011;31622;55.416;37.840;2023-04-15T11:10:56;5.18;;;2.00;;
45909;SDS011;31622;55.416;37.840;2023-04-15T11:12:58;7.70;;;2.00;;
45909;SDS011;31622;55.416;37.840;2023-04-15T11:20:46;4.10;;;1.52;;
45909;SDS011;31622;55.416;37.840;2023-04-15T11:23:37;3.90;;;1.80;;
45909;SDS011;31622;55.416;37.840;2023-04-15T11:26:06;3.28;;;1.48;;
45909;SDS011;31622;55.416;37.840;2023-04-15T11:28:34;4.93;;;1.80;;
45909;SDS011;31622;55.416;37.840;2023-04-15T11:31:07;4.30;;;1.58;;
45909;SDS011;31622;55.416;37.840;2023-04-15T11:33:52;2.88;;;1.60;;
45909;SDS011;31622;55.416;37.840;2023-04-15T11:36:22;2.75;;;1.75;;
45909;SDS011;31622;55.416;37.840;2023-04-15T11:38:51;2.60;;;1.60;;
45909;SDS011;31622;55.416;37.840;2023-04-15T11:41:21;5.22;;;1.60;;
45909;SDS011;31622;55.416;37.840;2023-04-15T11:43:47;3.28;;;1.77;;
45909;SDS011;31622;55.416;37.840;2023-04-15T11:46:14;3.35;;;1.88;;
45909;SDS011;31622;55.416;37.840;2023-04-15T11:48:43;2.35;;;1.40;;
45909;SDS011;31622;55.416;37.840;2023-04-15T11:51:10;4.43;;;1.75;;
45909;SDS011;31622;55.416;37.840;2023-04-15T11:53:46;3.80;;;1.70;;
45909;SDS011;31622;55.416;37.840;2023-04-15T11:56:17;5.03;;;1.65;;
45909;SDS011;31622;55.416;37.840;2023-04-15T11:58:45;5.80;;;1.65;;
45909;SDS011;31622;55.416;37.840;2023-04-15T12:01:11;3.58;;;2.08;;
45909;SDS011;31622;55.416;37.840;2023-04-15T12:13:52;3.13;;;2.03;;
45909;SDS011;31622;55.416;37.840;2023-04-15T12:16:19;3.17;;;1.92;;
45909;SDS011;31622;55.416;37.840;2023-04-15T12:18:45;4.88;;;1.70;;
45909;SDS011;31622;55.416;37.840;2023-04-15T12:21:11;3.80;;;1.70;;
45909;SDS011;31622;55.416;37.840;2023-04-15T12:23:38;2.72;;;1.75;;
45909;SDS011;31622;55.416;37.840;2023-04-15T12:26:28;3.92;;;2.17;;
45909;SDS011;31622;55.416;37.840;2023-04-15T12:28:59;4.25;;;2.00;;
45909;SDS011;31622;55.416;37.840;2023-04-15T12:31:26;6.90;;;3.00;;
45909;SDS011;31622;55.416;37.840;2023-04-15T12:33:54;8.15;;;4.05;;
45909;SDS011;31622;55.416;37.840;2023-04-15T12:36:20;17.85;;;7.05;;
45909;SDS011;31622;55.416;37.840;2023-04-15T12:38:46;17.75;;;6.68;;
45909;SDS011;31622;55.416;37.840;2023-04-15T12:41:12;22.52;;;7.75;;
45909;SDS011;31622;55.416;37.840;2023-04-15T12:43:38;22.13;;;6.60;;
45909;SDS011;31622;55.416;37.840;2023-04-15T12:46:03;27.17;;;9.52;;
45909;SDS011;31622;55.416;37.840;2023-04-15T12:48:29;26.50;;;8.80;;
45909;SDS011;31622;55.416;37.840;2023-04-15T12:50:55;37.90;;;9.80;;
45909;SDS011;31622;55.416;37.840;2023-04-15T12:53:20;29.67;;;10.30;;
45909;SDS011;31622;55.416;37.840;2023-04-15T12:55:46;26.27;;;8.35;;
45909;SDS011;31622;55.416;37.840;2023-04-15T12:58:12;21.45;;;7.50;;
45909;SDS011;31622;55.416;37.840;2023-04-15T13:00:38;28.85;;;7.63;;
45909;SDS011;31622;55.416;37.840;2023-04-15T13:03:04;24.98;;;7.75;;
45909;SDS011;31622;55.416;37.840;2023-04-15T13:05:29;21.67;;;7.50;;
45909;SDS011;31622;55.416;37.840;2023-04-15T13:07:55;19.83;;;6.55;;
45909;SDS011;31622;55.416;37.840;2023-04-15T13:10:21;19.40;;;5.90;;
45909;SDS011;31622;55.416;37.840;2023-04-15T13:12:50;19.67;;;7.05;;
45909;SDS011;31622;55.416;37.840;2023-04-15T13:15:18;19.17;;;7.38;;
45909;SDS011;31622;55.416;37.840;2023-04-15T13:17:46;18.92;;;5.70;;
45909;SDS011;31622;55.416;37.840;2023-04-15T13:20:12;13.82;;;4.80;;
45909;SDS011;31622;55.416;37.840;2023-04-15T13:22:38;11.43;;;4.60;;
45909;SDS011;31622;55.416;37.840;2023-04-15T13:25:04;9.70;;;3.95;;
45909;SDS011;31622;55.416;37.840;2023-04-15T13:27:30;12.13;;;4.13;;
45909;SDS011;31622;55.416;37.840;2023-04-15T13:29:56;8.75;;;4.15;;
45909;SDS011;31622;55.416;37.840;2023-04-15T13:32:22;15.45;;;5.18;;
45909;SDS011;31622;55.416;37.840;2023-04-15T13:34:47;11.88;;;4.43;;
45909;SDS011;31622;55.416;37.840;2023-04-15T13:37:13;10.20;;;4.10;;
45909;SDS011;31622;55.416;37.840;2023-04-15T13:39:39;8.75;;;3.90;;
45909;SDS011;31622;55.416;37.840;2023-04-15T13:42:05;7.13;;;3.15;;
45909;SDS011;31622;55.416;37.840;2023-04-15T13:44:31;8.85;;;3.45;;
45909;SDS011;31622;55.416;37.840;2023-04-15T13:46:56;11.25;;;3.70;;
45909;SDS011;31622;55.416;37.840;2023-04-15T13:49:22;10.20;;;3.97;;
45909;SDS011;31622;55.416;37.840;2023-04-15T13:51:47;10.38;;;4.10;;
45909;SDS011;31622;55.416;37.840;2023-04-15T13:54:13;7.85;;;3.33;;
45909;SDS011;31622;55.416;37.840;2023-04-15T13:56:39;7.22;;;3.35;;
45909;SDS011;31622;55.416;37.840;2023-04-15T13:59:05;7.40;;;3.28;;
45909;SDS011;31622;55.416;37.840;2023-04-15T14:01:30;8.40;;;3.80;;
45909;SDS011;31622;55.416;37.840;2023-04-15T14:03:56;6.70;;;3.50;;
45909;SDS011;31622;55.416;37.840;2023-04-15T14:06:22;7.20;;;3.17;;
45909;SDS011;31622;55.416;37.840;2023-04-15T14:08:48;8.13;;;3.20;;
45909;SDS011;31622;55.416;37.840;2023-04-15T14:11:13;6.10;;;2.83;;
45909;SDS011;31622;55.416;37.840;2023-04-15T14:13:39;6.22;;;2.92;;
45909;SDS011;31622;55.416;37.840;2023-04-15T14:16:05;4.70;;;2.67;;
45909;SDS011;31622;55.416;37.840;2023-04-15T14:18:31;7.57;;;2.58;;
45909;SDS011;31622;55.416;37.840;2023-04-15T14:20:57;4.75;;;2.33;;
45909;SDS011;31622;55.416;37.840;2023-04-15T14:23:23;7.15;;;3.05;;
45909;SDS011;31622;55.416;37.840;2023-04-15T14:25:49;5.60;;;2.55;;
45909;SDS011;31622;55.416;37.840;2023-04-15T14:28:15;7.63;;;3.08;;
45909;SDS011;31622;55.416;37.840;2023-04-15T14:30:41;8.90;;;2.90;;
45909;SDS011;31622;55.416;37.840;2023-04-15T14:33:07;4.38;;;2.10;;
45909;SDS011;31622;55.416;37.840;2023-04-15T14:35:33;7.18;;;3.00;;
45909;SDS011;31622;55.416;37.840;2023-04-15T14:37:59;7.90;;;3.10;;
45909;SDS011;31622;55.416;37.840;2023-04-15T14:40:24;6.70;;;3.75;;
45909;SDS011;31622;55.416;37.840;2023-04-15T14:42:50;7.65;;;3.72;;
45909;SDS011;31622;55.416;37.840;2023-04-15T14:45:16;6.20;;;3.30;;
45909;SDS011;31622;55.416;37.840;2023-04-15T14:47:42;6.65;;;3.80;;
45909;SDS011;31622;55.416;37.840;2023-04-15T14:50:08;6.75;;;3.55;;
45909;SDS011;31622;55.416;37.840;2023-04-15T14:52:34;6.55;;;3.50;;
45909;SDS011;31622;55.416;37.840;2023-04-15T14:55:06;6.97;;;3.55;;